Impacts TAF Board INFO
FOR SITUATIONAL AWARENESS. NOT TO BE USED FOR FLIGHT PLANNING PURPOSES.
IDs:

KCLT - Charlotte/Douglas In, NC, US

Issued at 0817 UTC 22 Feb 2018
Updated at 0845 UTC 22 Feb 2018
Potential Impact None Slight Moderate High
Time0835Z 22/09Z 22/10Z 22/11Z 22/12Z 22/13Z 22/14Z 22/15Z 22/16Z 22/17Z 22/18Z 22/19Z 22/20Z 22/21Z>>
Type OBS PRVL PRVL PRVL PRVL PRVL PRVL PRVL PRVL PRVL PRVL PRVL PRVL PRVL
VIS 10 >6 >6 5 5 5 5 >6 >6 >6 >6 >6 >6 >6
CIG 9 9 9 7 7 7 7 25 25 25 25 40 40 40
Cover BKN OVC OVC OVC OVC OVC OVC BKN BKN BKN BKN BKN BKN BKN
FltCat IFR IFR IFR IFR IFR IFR IFR MVFR MVFR MVFR MVFR VFR VFR VFR
WX -- -- -- BR BR BR BR -- -- -- -- -- -- --
WDir 180 190 190 190 190 190 190 200 200 200 200 210 210 210
WSpd 11 6 6 6 6 6 6 7 7 7 7 7 7 7
WGst -- -- -- -- -- -- -- -- -- -- -- -- -- --

Raw TAF
KCLT 220817Z 2208/2312 19006KT P6SM BKN009 OVC040
  FM221100 19006KT 5SM BR OVC007
  FM221500 20007KT P6SM SCT015 BKN025
  FM221900 21007KT P6SM BKN040
  FM230900 19003KT 4SM BR BKN016


Raw METAR
KCLT 220835Z 18011KT 10SM BKN009 18/18 A3041 RMK AO2 T01830178
KCLT 220806Z 18008KT 10SM SCT009 BKN040 18/18 A3041 RMK AO2 T01780178
KCLT 220752Z 18008KT 10SM FEW040 18/18 A3042 RMK AO2 SLP294 T01780178
KCLT 220652Z 18007KT 10SM FEW080 18/18 A3043 RMK AO2 SLP296 T01830178
KCLT 220552Z 18005KT 10SM FEW070 18/18 A3042 RMK AO2 SLP296 60000 T01830178 10222 20183 53003

METAR Board
Radar Display
Forecast Discussion

FOR SITUATIONAL AWARENESS. NOT TO BE USED FOR FLIGHT PLANNING PURPOSES.